sensor_id;sensor_type;location;lat;lon;timestamp;pressure;altitude;pressure_sealevel;temperature;humidity
57234;BME280;43090;52.604;13.318;2024-03-02T00:00:07;100031.75;;;6.55;100.00
57234;BME280;43090;52.604;13.318;2024-03-02T00:02:44;100015.44;;;6.47;100.00
57234;BME280;43090;52.604;13.318;2024-03-02T00:05:16;100027.94;;;6.59;100.00
57234;BME280;43090;52.604;13.318;2024-03-02T00:07:45;100026.97;;;6.60;100.00
57234;BME280;43090;52.604;13.318;2024-03-02T00:10:16;100024.22;;;6.62;100.00
57234;BME280;43090;52.604;13.318;2024-03-02T00:12:47;100015.13;;;6.52;100.00
57234;BME280;43090;52.604;13.318;2024-03-02T00:17:56;100031.25;;;6.63;100.00
57234;BME280;43090;52.604;13.318;2024-03-02T00:20:24;100022.00;;;6.69;100.00
57234;BME280;43090;52.604;13.318;2024-03-02T00:23:01;100024.56;;;6.70;100.00
57234;BME280;43090;52.604;13.318;2024-03-02T00:25:39;100018.56;;;6.66;100.00
57234;BME280;43090;52.604;13.318;2024-03-02T00:28:14;100015.38;;;6.61;100.00
57234;BME280;43090;52.604;13.318;2024-03-02T00:30:57;100021.69;;;6.73;100.00
57234;BME280;43090;52.604;13.318;2024-03-02T00:33:35;100017.84;;;6.77;100.00
57234;BME280;43090;52.604;13.318;2024-03-02T00:36:04;100007.13;;;6.79;100.00
57234;BME280;43090;52.604;13.318;2024-03-02T00:38:31;100010.97;;;6.75;100.00
57234;BME280;43090;52.604;13.318;2024-03-02T00:41:05;100007.13;;;6.79;100.00
57234;BME280;43090;52.604;13.318;2024-03-02T00:43:45;100010.13;;;6.87;100.00
57234;BME280;43090;52.604;13.318;2024-03-02T00:46:18;100002.22;;;6.73;100.00
57234;BME280;43090;52.604;13.318;2024-03-02T00:48:53;100000.97;;;6.91;100.00
57234;BME280;43090;52.604;13.318;2024-03-02T00:51:25;99979.38;;;6.83;100.00
57234;BME280;43090;52.604;13.318;2024-03-02T00:53:53;99994.47;;;6.82;100.00
57234;BME280;43090;52.604;13.318;2024-03-02T00:56:24;99998.50;;;6.75;100.00
57234;BME280;43090;52.604;13.318;2024-03-02T00:58:51;99987.38;;;6.28;100.00
57234;BME280;43090;52.604;13.318;2024-03-02T01:01:19;99989.38;;;6.52;100.00
57234;BME280;43090;52.604;13.318;2024-03-02T01:03:49;100002.16;;;6.87;100.00
57234;BME280;43090;52.604;13.318;2024-03-02T01:06:16;100002.56;;;6.94;100.00
57234;BME280;43090;52.604;13.318;2024-03-02T01:08:43;99993.75;;;6.93;100.00
57234;BME280;43090;52.604;13.318;2024-03-02T01:11:10;100004.84;;;7.00;100.00
57234;BME280;43090;52.604;13.318;2024-03-02T01:13:36;99997.03;;;6.84;100.00
57234;BME280;43090;52.604;13.318;2024-03-02T01:16:03;99966.88;;;6.71;100.00
57234;BME280;43090;52.604;13.318;2024-03-02T01:18:30;99974.34;;;6.78;100.00
57234;BME280;43090;52.604;13.318;2024-03-02T01:20:57;99992.22;;;6.89;100.00
57234;BME280;43090;52.604;13.318;2024-03-02T01:23:24;99985.63;;;6.82;100.00
57234;BME280;43090;52.604;13.318;2024-03-02T01:25:51;99999.69;;;6.97;100.00
57234;BME280;43090;52.604;13.318;2024-03-02T01:28:19;99997.81;;;6.99;100.00
57234;BME280;43090;52.604;13.318;2024-03-02T01:30:47;99966.50;;;6.90;100.00
57234;BME280;43090;52.604;13.318;2024-03-02T01:33:15;99980.00;;;6.99;100.00
57234;BME280;43090;52.604;13.318;2024-03-02T01:35:41;99964.38;;;6.95;100.00
57234;BME280;43090;52.604;13.318;2024-03-02T01:38:08;99974.28;;;7.06;100.00
57234;BME280;43090;52.604;13.318;2024-03-02T01:40:35;99968.19;;;7.04;100.00
57234;BME280;43090;52.604;13.318;2024-03-02T01:43:03;99962.78;;;6.92;100.00
57234;BME280;43090;52.604;13.318;2024-03-02T01:45:30;99974.16;;;7.07;100.00
57234;BME280;43090;52.604;13.318;2024-03-02T01:47:56;99989.28;;;7.20;100.00
57234;BME280;43090;52.604;13.318;2024-03-02T01:50:27;99956.91;;;6.87;100.00
57234;BME280;43090;52.604;13.318;2024-03-02T01:52:55;99954.78;;;6.92;100.00
57234;BME280;43090;52.604;13.318;2024-03-02T01:55:22;99969.69;;;7.08;100.00
57234;BME280;43090;52.604;13.318;2024-03-02T01:57:49;99959.03;;;7.08;100.00
57234;BME280;43090;52.604;13.318;2024-03-02T02:00:21;99941.91;;;6.86;100.00
57234;BME280;43090;52.604;13.318;2024-03-02T02:02:48;99929.56;;;6.98;100.00
57234;BME280;43090;52.604;13.318;2024-03-02T02:05:14;99945.63;;;6.96;100.00
57234;BME280;43090;52.604;13.318;2024-03-02T02:07:41;99939.44;;;7.09;100.00
57234;BME280;43090;52.604;13.318;2024-03-02T02:10:09;99923.69;;;7.06;100.00
57234;BME280;43090;52.604;13.318;2024-03-02T02:12:36;99942.34;;;7.19;100.00
57234;BME280;43090;52.604;13.318;2024-03-02T02:15:20;99913.28;;;7.03;100.00
57234;BME280;43090;52.604;13.318;2024-03-02T02:17:47;99895.28;;;6.93;100.00
57234;BME280;43090;52.604;13.318;2024-03-02T02:20:14;99931.56;;;7.07;100.00
57234;BME280;43090;52.604;13.318;2024-03-02T02:22:40;99936.59;;;7.12;100.00
57234;BME280;43090;52.604;13.318;2024-03-02T02:25:18;99921.88;;;7.06;100.00
57234;BME280;43090;52.604;13.318;2024-03-02T02:27:44;99932.00;;;7.14;100.00
57234;BME280;43090;52.604;13.318;2024-03-02T02:30:11;99917.53;;;7.05;100.00
57234;BME280;43090;52.604;13.318;2024-03-02T02:47:07;99929.44;;;6.33;100.00
57234;BME280;43090;52.604;13.318;2024-03-02T02:49:34;99928.13;;;6.54;100.00
57234;BME280;43090;52.604;13.318;2024-03-02T02:52:00;99912.06;;;6.68;100.00
57234;BME280;43090;52.604;13.318;2024-03-02T02:54:27;99931.13;;;6.88;100.00
57234;BME280;43090;52.604;13.318;2024-03-02T02:56:54;99922.75;;;6.94;100.00
57234;BME280;43090;52.604;13.318;2024-03-02T02:59:20;99918.69;;;7.01;100.00
57234;BME280;43090;52.604;13.318;2024-03-02T03:01:47;99922.88;;;7.05;100.00
57234;BME280;43090;52.604;13.318;2024-03-02T03:04:13;99932.88;;;7.14;100.00
57234;BME280;43090;52.604;13.318;2024-03-02T03:06:40;99916.66;;;7.05;100.00
57234;BME280;43090;52.604;13.318;2024-03-02T03:09:06;99925.06;;;7.11;100.00
57234;BME280;43090;52.604;13.318;2024-03-02T03:11:33;99931.47;;;7.22;100.00
57234;BME280;43090;52.604;13.318;2024-03-02T03:13:59;99939.03;;;7.28;100.00
57234;BME280;43090;52.604;13.318;2024-03-02T03:16:27;99944.13;;;7.31;100.00
57234;BME280;43090;52.604;13.318;2024-03-02T03:18:54;99940.72;;;7.42;100.00
57234;BME280;43090;52.604;13.318;2024-03-02T03:21:21;99928.16;;;7.18;100.00
57234;BME280;43090;52.604;13.318;2024-03-02T03:23:47;99937.75;;;7.33;100.00
57234;BME280;43090;52.604;13.318;2024-03-02T03:26:14;99934.00;;;7.36;100.00
57234;BME280;43090;52.604;13.318;2024-03-02T03:28:40;99945.09;;;7.43;100.00
57234;BME280;43090;52.604;13.318;2024-03-02T03:31:07;99931.34;;;7.36;100.00
57234;BME280;43090;52.604;13.318;2024-03-02T03:33:33;99946.03;;;7.55;100.00
57234;BME280;43090;52.604;13.318;2024-03-02T03:36:00;99938.56;;;7.47;100.00
57234;BME280;43090;52.604;13.318;2024-03-02T03:38:29;99937.75;;;7.33;100.00
57234;BME280;43090;52.604;13.318;2024-03-02T03:40:56;99943.25;;;7.56;100.00
57234;BME280;43090;52.604;13.318;2024-03-02T03:43:23;99951.13;;;7.58;100.00
57234;BME280;43090;52.604;13.318;2024-03-02T03:45:49;99937.72;;;7.46;100.00
57234;BME280;43090;52.604;13.318;2024-03-02T03:48:16;99938.31;;;7.63;100.00
57234;BME280;43090;52.604;13.318;2024-03-02T03:50:43;99918.34;;;7.44;100.00
57234;BME280;43090;52.604;13.318;2024-03-02T03:53:09;99937.38;;;7.64;100.00
57234;BME280;43090;52.604;13.318;2024-03-02T03:55:36;99930.97;;;7.66;100.00
57234;BME280;43090;52.604;13.318;2024-03-02T03:58:02;99943.19;;;7.82;100.00
57234;BME280;43090;52.604;13.318;2024-03-02T04:00:29;99917.97;;;7.62;100.00
57234;BME280;43090;52.604;13.318;2024-03-02T04:02:55;99936.59;;;7.75;100.00
57234;BME280;43090;52.604;13.318;2024-03-02T04:05:23;99932.53;;;7.82;100.00
57234;BME280;43090;52.604;13.318;2024-03-02T04:07:49;99943.38;;;7.92;100.00
57234;BME280;43090;52.604;13.318;2024-03-02T04:10:16;99944.84;;;7.96;100.00
57234;BME280;43090;52.604;13.318;2024-03-02T04:12:43;99932.06;;;7.88;100.00
57234;BME280;43090;52.604;13.318;2024-03-02T04:15:10;99932.06;;;7.88;100.00
57234;BME280;43090;52.604;13.318;2024-03-02T04:17:36;99953.09;;;7.93;100.00
57234;BME280;43090;52.604;13.318;2024-03-02T04:20:03;99945.34;;;7.77;100.00
57234;BME280;43090;52.604;13.318;2024-03-02T04:22:33;99952.56;;;7.88;100.00
57234;BME280;43090;52.604;13.318;2024-03-02T04:25:00;99948.53;;;7.82;100.00
57234;BME280;43090;52.604;13.318;2024-03-02T04:27:27;99961.72;;;7.96;100.00
57234;BME280;43090;52.604;13.318;2024-03-02T04:29:54;99955.63;;;7.94;100.00
57234;BME280;43090;52.604;13.318;2024-03-02T04:32:20;99965.09;;;7.98;100.00
57234;BME280;43090;52.604;13.318;2024-03-02T04:34:47;99935.50;;;7.90;100.00
57234;BME280;43090;52.604;13.318;2024-03-02T04:37:13;99944.13;;;7.94;100.00
57234;BME280;43090;52.604;13.318;2024-03-02T04:39:41;99962.72;;;8.07;100.00
57234;BME280;43090;52.604;13.318;2024-03-02T04:42:07;99958.66;;;8.14;100.00
57234;BME280;43090;52.604;13.318;2024-03-02T04:44:34;99947.88;;;7.91;100.00
57234;BME280;43090;52.604;13.318;2024-03-02T04:47:00;99959.44;;;8.03;100.00
57234;BME280;43090;52.604;13.318;2024-03-02T04:49:27;99957.00;;;8.00;100.00
57234;BME280;43090;52.604;13.318;2024-03-02T04:51:53;99954.03;;;7.92;100.00
57234;BME280;43090;52.604;13.318;2024-03-02T04:54:20;99952.97;;;7.94;100.00
57234;BME280;43090;52.604;13.318;2024-03-02T04:56:47;99963.63;;;7.94;100.00
57234;BME280;43090;52.604;13.318;2024-03-02T04:59:17;99970.19;;;8.01;100.00
57234;BME280;43090;52.604;13.318;2024-03-02T05:01:44;99959.47;;;7.90;100.00
57234;BME280;43090;52.604;13.318;2024-03-02T05:04:11;99970.44;;;7.98;100.00
57234;BME280;43090;52.604;13.318;2024-03-02T05:06:39;99981.63;;;8.04;100.00
57234;BME280;43090;52.604;13.318;2024-03-02T05:09:09;99976.28;;;8.04;100.00
57234;BME280;43090;52.604;13.318;2024-03-02T05:11:35;99972.38;;;7.96;100.00
57234;BME280;43090;52.604;13.318;2024-03-02T05:14:05;99986.09;;;8.03;100.00
57234;BME280;43090;52.604;13.318;2024-03-02T05:16:33;99988.38;;;7.96;100.00
57234;BME280;43090;52.604;13.318;2024-03-02T05:19:01;99995.06;;;8.02;100.00
57234;BME280;43090;52.604;13.318;2024-03-02T05:21:27;99987.19;;;8.00;100.00
57234;BME280;43090;52.604;13.318;2024-03-02T05:23:54;99991.47;;;7.90;100.00
57234;BME280;43090;52.604;13.318;2024-03-02T05:26:21;99978.16;;;7.77;100.00
57234;BME280;43090;52.604;13.318;2024-03-02T05:28:48;99989.34;;;7.82;100.00
57234;BME280;43090;52.604;13.318;2024-03-02T05:31:15;99983.19;;;7.82;100.00
57234;BME280;43090;52.604;13.318;2024-03-02T05:33:41;100005.63;;;8.04;100.00
57234;BME280;43090;52.604;13.318;2024-03-02T05:36:11;99996.66;;;8.05;100.00
57234;BME280;43090;52.604;13.318;2024-03-02T05:38:37;99981.75;;;7.89;100.00
57234;BME280;43090;52.604;13.318;2024-03-02T05:41:04;100008.41;;;7.89;100.00
57234;BME280;43090;52.604;13.318;2024-03-02T05:43:31;100005.63;;;7.91;100.00
57234;BME280;43090;52.604;13.318;2024-03-02T05:45:57;100001.84;;;7.82;100.00
57234;BME280;43090;52.604;13.318;2024-03-02T05:48:24;99999.34;;;7.92;100.00
57234;BME280;43090;52.604;13.318;2024-03-02T05:50:50;100009.47;;;7.99;100.00
57234;BME280;43090;52.604;13.318;2024-03-02T05:53:17;100019.44;;;8.22;100.00
57234;BME280;43090;52.604;13.318;2024-03-02T05:55:43;100023.31;;;8.05;100.00
57234;BME280;43090;52.604;13.318;2024-03-02T05:58:11;100022.78;;;7.99;100.00
57234;BME280;43090;52.604;13.318;2024-03-02T06:00:52;100022.03;;;7.97;100.00
57234;BME280;43090;52.604;13.318;2024-03-02T06:03:19;100030.94;;;8.22;100.00
57234;BME280;43090;52.604;13.318;2024-03-02T06:05:45;100044.78;;;8.27;100.00
57234;BME280;43090;52.604;13.318;2024-03-02T06:08:12;100041.69;;;7.96;100.00
57234;BME280;43090;52.604;13.318;2024-03-02T06:10:38;100047.91;;;8.21;100.00
57234;BME280;43090;52.604;13.318;2024-03-02T06:13:06;100055.34;;;8.29;100.00
57234;BME280;43090;52.604;13.318;2024-03-02T06:15:33;100032.78;;;8.22;100.00
57234;BME280;43090;52.604;13.318;2024-03-02T06:18:02;100017.38;;;7.88;100.00
57234;BME280;43090;52.604;13.318;2024-03-02T06:20:29;100029.19;;;8.10;100.00
57234;BME280;43090;52.604;13.318;2024-03-02T06:23:01;100043.88;;;8.15;100.00
57234;BME280;43090;52.604;13.318;2024-03-02T06:25:30;100039.22;;;8.30;100.00
57234;BME280;43090;52.604;13.318;2024-03-02T06:27:56;100034.78;;;8.18;100.00
57234;BME280;43090;52.604;13.318;2024-03-02T06:30:23;100016.84;;;8.20;100.00
57234;BME280;43090;52.604;13.318;2024-03-02T06:32:50;100045.59;;;8.41;100.00
57234;BME280;43090;52.604;13.318;2024-03-02T06:35:17;100019.13;;;8.13;100.00
57234;BME280;43090;52.604;13.318;2024-03-02T06:37:43;100047.38;;;8.16;100.00
57234;BME280;43090;52.604;13.318;2024-03-02T06:40:10;100045.09;;;8.36;100.00
57234;BME280;43090;52.604;13.318;2024-03-02T06:42:36;100044.97;;;8.50;100.00
57234;BME280;43090;52.604;13.318;2024-03-02T06:45:03;100018.13;;;8.27;100.00
57234;BME280;43090;52.604;13.318;2024-03-02T06:47:31;100023.03;;;8.33;100.00
57234;BME280;43090;52.604;13.318;2024-03-02T06:49:57;100022.13;;;8.46;100.00
57234;BME280;43090;52.604;13.318;2024-03-02T06:52:27;100037.72;;;8.52;100.00
57234;BME280;43090;52.604;13.318;2024-03-02T06:54:54;100042.38;;;8.61;100.00
57234;BME280;43090;52.604;13.318;2024-03-02T06:57:20;100040.03;;;8.57;100.00
57234;BME280;43090;52.604;13.318;2024-03-02T06:59:47;100050.13;;;8.64;100.00
57234;BME280;43090;52.604;13.318;2024-03-02T07:02:16;100034.06;;;8.53;100.00
57234;BME280;43090;52.604;13.318;2024-03-02T07:04:43;100037.72;;;8.52;100.00
57234;BME280;43090;52.604;13.318;2024-03-02T07:07:11;100032.38;;;8.52;100.00
57234;BME280;43090;52.604;13.318;2024-03-02T07:09:40;100027.88;;;8.53;100.00
57234;BME280;43090;52.604;13.318;2024-03-02T07:12:06;100056.66;;;8.60;100.00
57234;BME280;43090;52.604;13.318;2024-03-02T07:14:34;100054.44;;;8.54;100.00
57234;BME280;43090;52.604;13.318;2024-03-02T07:17:19;100033.47;;;8.37;100.00
57234;BME280;43090;52.604;13.318;2024-03-02T07:19:45;100058.41;;;8.48;100.00
57234;BME280;43090;52.604;13.318;2024-03-02T07:22:13;100069.59;;;8.41;100.00
57234;BME280;43090;52.604;13.318;2024-03-02T07:24:40;100069.72;;;8.39;100.00
57234;BME280;43090;52.604;13.318;2024-03-02T07:27:08;100059.28;;;8.36;100.00
57234;BME280;43090;52.604;13.318;2024-03-02T07:29:35;100057.47;;;8.37;100.00
57234;BME280;43090;52.604;13.318;2024-03-02T07:32:02;100066.94;;;8.54;100.00
57234;BME280;43090;52.604;13.318;2024-03-02T07:34:29;100081.19;;;8.65;100.00
57234;BME280;43090;52.604;13.318;2024-03-02T07:36:55;100074.25;;;8.63;100.00
57234;BME280;43090;52.604;13.318;2024-03-02T07:39:22;100088.16;;;8.79;100.00
57234;BME280;43090;52.604;13.318;2024-03-02T07:41:48;100087.22;;;8.56;100.00
57234;BME280;43090;52.604;13.318;2024-03-02T07:44:15;100098.88;;;8.66;100.00
57234;BME280;43090;52.604;13.318;2024-03-02T07:46:46;100088.03;;;8.57;100.00
57234;BME280;43090;52.604;13.318;2024-03-02T07:49:13;100092.28;;;8.72;100.00
57234;BME280;43090;52.604;13.318;2024-03-02T07:51:43;100096.28;;;8.78;100.00
57234;BME280;43090;52.604;13.318;2024-03-02T07:54:09;100113.28;;;9.01;100.00
57234;BME280;43090;52.604;13.318;2024-03-02T07:56:36;100104.06;;;8.57;100.00
57234;BME280;43090;52.604;13.318;2024-03-02T07:59:06;100109.06;;;8.61;100.00
57234;BME280;43090;52.604;13.318;2024-03-02T08:01:34;100088.28;;;8.41;100.00
57234;BME280;43090;52.604;13.318;2024-03-02T08:04:01;100128.25;;;8.66;100.00
57234;BME280;43090;52.604;13.318;2024-03-02T08:06:30;100122.81;;;8.68;100.00
57234;BME280;43090;52.604;13.318;2024-03-02T08:08:57;100125.38;;;8.70;100.00
57234;BME280;43090;52.604;13.318;2024-03-02T08:11:24;100120.06;;;8.57;100.00
57234;BME280;43090;52.604;13.318;2024-03-02T08:13:51;100124.69;;;8.79;100.00
57234;BME280;43090;52.604;13.318;2024-03-02T08:16:19;100108.81;;;8.77;100.00
57234;BME280;43090;52.604;13.318;2024-03-02T08:18:49;100130.25;;;9.00;100.00
57234;BME280;43090;52.604;13.318;2024-03-02T08:21:15;100121.00;;;8.93;100.00
57234;BME280;43090;52.604;13.318;2024-03-02T08:23:42;100125.19;;;9.08;100.00
57234;BME280;43090;52.604;13.318;2024-03-02T08:26:10;100127.06;;;9.19;100.00
57234;BME280;43090;52.604;13.318;2024-03-02T08:28:38;100127.00;;;8.83;100.00
57234;BME280;43090;52.604;13.318;2024-03-02T08:31:07;100136.56;;;8.99;100.00
57234;BME280;43090;52.604;13.318;2024-03-02T08:33:34;100134.94;;;8.85;100.00
57234;BME280;43090;52.604;13.318;2024-03-02T08:36:04;100123.50;;;8.83;100.00
57234;BME280;43090;52.604;13.318;2024-03-02T08:38:30;100129.97;;;9.16;100.00
57234;BME280;43090;52.604;13.318;2024-03-02T08:40:57;100141.22;;;9.08;100.00
57234;BME280;43090;52.604;13.318;2024-03-02T08:43:24;100130.97;;;9.02;100.00
57234;BME280;43090;52.604;13.318;2024-03-02T08:45:51;100146.28;;;9.00;100.00
57234;BME280;43090;52.604;13.318;2024-03-02T08:48:17;100150.59;;;8.90;100.00
57234;BME280;43090;52.604;13.318;2024-03-02T08:50:44;100144.34;;;8.78;100.00
57234;BME280;43090;52.604;13.318;2024-03-02T08:53:18;100147.38;;;8.97;100.00
57234;BME280;43090;52.604;13.318;2024-03-02T08:55:46;100158.88;;;8.98;100.00
57234;BME280;43090;52.604;13.318;2024-03-02T08:58:12;100147.25;;;8.99;100.00
57234;BME280;43090;52.604;13.318;2024-03-02T09:00:40;100153.22;;;9.03;100.00
57234;BME280;43090;52.604;13.318;2024-03-02T09:03:07;100158.56;;;9.03;100.00
57234;BME280;43090;52.604;13.318;2024-03-02T09:05:33;100167.66;;;9.00;100.00
57234;BME280;43090;52.604;13.318;2024-03-02T09:08:00;100151.28;;;8.80;100.00
57234;BME280;43090;52.604;13.318;2024-03-02T09:10:26;100160.03;;;9.07;100.00
57234;BME280;43090;52.604;13.318;2024-03-02T09:12:54;100149.41;;;8.94;100.00
57234;BME280;43090;52.604;13.318;2024-03-02T09:15:20;100165.47;;;9.29;100.00
57234;BME280;43090;52.604;13.318;2024-03-02T09:17:47;100164.03;;;9.01;100.00
57234;BME280;43090;52.604;13.318;2024-03-02T09:20:14;100166.38;;;8.93;100.00
57234;BME280;43090;52.604;13.318;2024-03-02T09:22:40;100169.72;;;8.83;100.00
57234;BME280;43090;52.604;13.318;2024-03-02T09:25:07;100181.28;;;8.84;100.00
57234;BME280;43090;52.604;13.318;2024-03-02T09:27:38;100170.09;;;9.03;100.00
57234;BME280;43090;52.604;13.318;2024-03-02T09:30:32;100171.91;;;9.03;100.00
57234;BME280;43090;52.604;13.318;2024-03-02T09:32:58;100176.84;;;9.20;100.00
57234;BME280;43090;52.604;13.318;2024-03-02T09:35:28;100183.66;;;9.24;100.00
57234;BME280;43090;52.604;13.318;2024-03-02T09:37:55;100178.28;;;9.13;100.00
57234;BME280;43090;52.604;13.318;2024-03-02T09:40:22;100179.25;;;9.12;100.00
57234;BME280;43090;52.604;13.318;2024-03-02T09:42:49;100176.97;;;9.19;100.00
57234;BME280;43090;52.604;13.318;2024-03-02T09:45:23;100175.66;;;9.24;100.00
57234;BME280;43090;52.604;13.318;2024-03-02T09:47:51;100167.34;;;9.40;100.00
57234;BME280;43090;52.604;13.318;2024-03-02T09:50:18;100159.44;;;9.39;100.00
57234;BME280;43090;52.604;13.318;2024-03-02T09:52:48;100150.59;;;9.38;100.00
57234;BME280;43090;52.604;13.318;2024-03-02T09:55:15;100162.69;;;9.66;100.00
57234;BME280;43090;52.604;13.318;2024-03-02T09:57:43;100161.69;;;9.56;100.00
57234;BME280;43090;52.604;13.318;2024-03-02T10:00:10;100170.63;;;9.91;100.00
57234;BME280;43090;52.604;13.318;2024-03-02T10:02:42;100168.31;;;9.97;100.00
57234;BME280;43090;52.604;13.318;2024-03-02T10:05:09;100160.72;;;10.27;100.00
57234;BME280;43090;52.604;13.318;2024-03-02T10:07:35;100163.97;;;10.30;100.00
57234;BME280;43090;52.604;13.318;2024-03-02T10:10:15;100173.63;;;10.44;100.00
57234;BME280;43090;52.604;13.318;2024-03-02T10:12:42;100159.84;;;10.26;100.00
57234;BME280;43090;52.604;13.318;2024-03-02T10:15:09;100166.28;;;10.24;100.00
57234;BME280;43090;52.604;13.318;2024-03-02T10:17:36;100168.16;;;10.46;100.00
57234;BME280;43090;52.604;13.318;2024-03-02T10:22:49;100154.50;;;10.49;100.00
57234;BME280;43090;52.604;13.318;2024-03-02T10:25:32;100161.81;;;10.36;100.00
57234;BME280;43090;52.604;13.318;2024-03-02T10:28:16;100173.59;;;10.67;100.00
57234;BME280;43090;52.604;13.318;2024-03-02T10:30:47;100160.13;;;10.57;100.00
57234;BME280;43090;52.604;13.318;2024-03-02T10:33:14;100167.53;;;10.65;100.00
57234;BME280;43090;52.604;13.318;2024-03-02T10:35:41;100173.22;;;10.83;100.00
57234;BME280;43090;52.604;13.318;2024-03-02T10:38:08;100176.31;;;10.44;100.00
57234;BME280;43090;52.604;13.318;2024-03-02T10:40:39;100161.66;;;10.82;100.00
57234;BME280;43090;52.604;13.318;2024-03-02T10:43:06;100124.22;;;10.37;100.00
57234;BME280;43090;52.604;13.318;2024-03-02T10:45:37;100165.06;;;10.84;99.89
57234;BME280;43090;52.604;13.318;2024-03-02T10:48:04;100159.97;;;10.70;97.48
57234;BME280;43090;52.604;13.318;2024-03-02T10:50:32;100134.88;;;10.82;97.96
57234;BME280;43090;52.604;13.318;2024-03-02T10:52:58;100176.06;;;11.14;97.84
57234;BME280;43090;52.604;13.318;2024-03-02T10:55:25;100178.34;;;11.19;99.63
57234;BME280;43090;52.604;13.318;2024-03-02T10:57:52;100169.44;;;11.29;95.54
57234;BME280;43090;52.604;13.318;2024-03-02T11:00:33;100154.38;;;11.17;92.91
57234;BME280;43090;52.604;13.318;2024-03-02T11:03:07;100173.34;;;11.25;93.73
57234;BME280;43090;52.604;13.318;2024-03-02T11:05:41;100171.88;;;11.32;94.56
57234;BME280;43090;52.604;13.318;2024-03-02T11:08:13;100164.59;;;11.23;94.62
57234;BME280;43090;52.604;13.318;2024-03-02T11:10:49;100162.06;;;11.43;94.28
57234;BME280;43090;52.604;13.318;2024-03-02T11:13:33;100173.53;;;11.87;89.63
57234;BME280;43090;52.604;13.318;2024-03-02T11:16:06;100174.94;;;12.03;91.25
57234;BME280;43090;52.604;13.318;2024-03-02T11:18:38;100165.53;;;11.76;90.54
57234;BME280;43090;52.604;13.318;2024-03-02T11:21:09;100150.69;;;11.72;89.17
57234;BME280;43090;52.604;13.318;2024-03-02T11:23:39;100157.75;;;11.19;92.77
57234;BME280;43090;52.604;13.318;2024-03-02T11:26:21;100162.16;;;11.74;88.67
57234;BME280;43090;52.604;13.318;2024-03-02T11:28:52;100157.81;;;11.08;93.33
57234;BME280;43090;52.604;13.318;2024-03-02T11:31:18;100161.63;;;10.94;91.54
57234;BME280;43090;52.604;13.318;2024-03-02T11:33:45;100148.25;;;11.26;89.19
57234;BME280;43090;52.604;13.318;2024-03-02T11:36:12;100166.25;;;11.36;87.89
57234;BME280;43090;52.604;13.318;2024-03-02T11:38:45;100149.53;;;11.11;88.11
57234;BME280;43090;52.604;13.318;2024-03-02T11:41:13;100165.75;;;10.98;89.49
57234;BME280;43090;52.604;13.318;2024-03-02T11:43:41;100128.13;;;11.32;88.85
57234;BME280;43090;52.604;13.318;2024-03-02T11:46:10;100159.16;;;11.67;88.66
57234;BME280;43090;52.604;13.318;2024-03-02T11:48:39;100164.25;;;11.38;90.47
57234;BME280;43090;52.604;13.318;2024-03-02T11:51:50;100133.63;;;11.52;85.87
57234;BME280;43090;52.604;13.318;2024-03-02T11:54:25;100156.00;;;11.83;85.50
57234;BME280;43090;52.604;13.318;2024-03-02T12:04:08;100144.72;;;11.47;87.01
57234;BME280;43090;52.604;13.318;2024-03-02T12:06:56;100149.47;;;11.97;84.38
57234;BME280;43090;52.604;13.318;2024-03-02T12:09:32;100133.34;;;11.76;82.86
57234;BME280;43090;52.604;13.318;2024-03-02T12:14:53;100170.72;;;12.41;80.79
57234;BME280;43090;52.604;13.318;2024-03-02T12:17:28;100138.84;;;11.74;82.26
57234;BME280;43090;52.604;13.318;2024-03-02T12:19:58;100145.84;;;11.65;81.24
57234;BME280;43090;52.604;13.318;2024-03-02T12:22:25;100153.00;;;11.76;83.20
57234;BME280;43090;52.604;13.318;2024-03-02T12:24:52;100151.16;;;12.29;83.45
57234;BME280;43090;52.604;13.318;2024-03-02T12:27:18;100142.81;;;12.22;80.49
57234;BME280;43090;52.604;13.318;2024-03-02T12:29:48;100134.25;;;11.97;79.54
57234;BME280;43090;52.604;13.318;2024-03-02T12:32:17;100147.91;;;12.56;79.25
57234;BME280;43090;52.604;13.318;2024-03-02T12:34:46;100140.44;;;12.70;78.38
57234;BME280;43090;52.604;13.318;2024-03-02T12:37:13;100131.25;;;12.72;79.63
57234;BME280;43090;52.604;13.318;2024-03-02T12:39:45;100117.66;;;12.54;78.77
57234;BME280;43090;52.604;13.318;2024-03-02T12:42:17;100133.88;;;12.43;77.48
57234;BME280;43090;52.604;13.318;2024-03-02T12:44:58;100131.09;;;12.23;77.33
57234;BME280;43090;52.604;13.318;2024-03-02T12:47:27;100122.09;;;12.34;79.29
57234;BME280;43090;52.604;13.318;2024-03-02T12:49:59;100129.81;;;12.58;76.80
57234;BME280;43090;52.604;13.318;2024-03-02T12:52:26;100126.84;;;12.61;76.51
57234;BME280;43090;52.604;13.318;2024-03-02T12:55:05;100135.44;;;12.55;75.14
57234;BME280;43090;52.604;13.318;2024-03-02T12:57:39;100129.00;;;12.77;74.52
57234;BME280;43090;52.604;13.318;2024-03-02T13:00:18;100138.28;;;12.54;74.41
57234;BME280;43090;52.604;13.318;2024-03-02T13:03:11;100142.53;;;12.66;74.44
57234;BME280;43090;52.604;13.318;2024-03-02T13:05:48;100127.31;;;12.76;73.04
57234;BME280;43090;52.604;13.318;2024-03-02T13:08:15;100117.84;;;12.82;72.77
57234;BME280;43090;52.604;13.318;2024-03-02T13:10:43;100127.34;;;12.96;72.34
57234;BME280;43090;52.604;13.318;2024-03-02T13:13:13;100113.41;;;12.61;74.06
57234;BME280;43090;52.604;13.318;2024-03-02T13:15:45;100104.44;;;12.92;71.26
57234;BME280;43090;52.604;13.318;2024-03-02T13:18:11;100134.72;;;13.62;71.56
57234;BME280;43090;52.604;13.318;2024-03-02T13:20:38;100129.91;;;13.46;74.38